Time;durP1;ratioP1;P1;durP2;ratioP2;P2;SDS_P1;SDS_P2;PMS_P1;PMS_P2;Temp;Humidity;BMP_temperature;BMP_pressure;BME280_temperature;BME280_humidity;BME280_pressure;Samples;Min_cycle;Max_cycle;Signal;HPM_P1;HPM_P2
2023/07/24 00:01:35;;;;;;;;;;;;;;;;;;5034749;28;20289;-36
2023/07/24 00:04:01;;;;;;;;;;;;;;;;;;5004544;28;20269;-23
2023/07/24 00:06:27;;;;;;;;;;;;;;;;;;4995082;28;19914;-22
2023/07/24 00:08:52;;;;;;;;;;;;;;;;;;4995093;28;19972;-25
2023/07/24 00:11:18;;;;;;;;;;;;;;;;;;4995066;28;19917;-24
2023/07/24 00:13:44;;;;;;;;;;;;;;;;;;4994935;28;19949;-20
2023/07/24 00:16:10;;;;;;;;;;;;;;;;;;4995069;28;19945;-21
2023/07/24 00:18:36;;;;;;;;;;;;;;;;;;4994930;28;19968;-28
2023/07/24 00:21:02;;;;;;;;;;;;;;;;;;4994907;28;19980;-24
2023/07/24 00:23:28;;;;;;;;;;;;;;;;;;4994835;28;19921;-24
2023/07/24 00:25:54;;;;;;;;;;;;;;;;;;4994805;28;19929;-26
2023/07/24 00:28:20;;;;;;;;;;;;;;;;;;4997364;28;19916;-22
2023/07/24 00:30:46;;;;;;;;;;;;;;;;;;4998842;28;20312;-22
2023/07/24 00:33:12;;;;;;;;;;;;;;;;;;4998824;28;19913;-30
2023/07/24 00:35:38;;;;;;;;;;;;;;;;;;4998772;28;19910;-27
2023/07/24 00:38:04;;;;;;;;;;;;;;;;;;4998790;28;19914;-25
2023/07/24 00:40:30;;;;;;;;;;;;;;;;;;4998814;28;19920;-28
2023/07/24 00:42:56;;;;;;;;;;;;;;;;;;4998627;28;19991;-26
2023/07/24 00:45:22;;;;;;;;;;;;;;;;;;4998697;28;19921;-32
2023/07/24 00:47:48;;;;;;;;;;;;;;;;;;4998762;28;19913;-24
2023/07/24 00:50:14;;;;;;;;;;;;;;;;;;4998557;28;19921;-24
2023/07/24 00:52:39;;;;;;;;;;;;;;;;;;4998590;28;19972;-27
2023/07/24 00:55:05;;;;;;;;;;;;;;;;;;4998420;28;19969;-29
2023/07/24 00:57:31;;;;;;;;;;;;;;;;;;4998423;28;19910;-23
2023/07/24 00:59:57;;;;;;;;;;;;;;;;;;4998311;28;19993;-21
2023/07/24 01:02:23;;;;;;;;;;;;;;;;;;4998271;28;19914;-27
2023/07/24 01:04:49;;;;;;;;;;;;;;;;;;5029184;28;19921;-22
2023/07/24 01:07:16;;;;;;;;;;;;;;;;;;5037670;28;19913;-28
2023/07/24 01:09:42;;;;;;;;;;;;;;;;;;5037526;28;20272;-26
2023/07/24 01:12:08;;;;;;;;;;;;;;;;;;5037768;28;19909;-24
2023/07/24 01:14:34;;;;;;;;;;;;;;;;;;5037449;28;19919;-26
2023/07/24 01:17:00;;;;;;;;;;;;;;;;;;5037470;28;19909;-24
2023/07/24 01:19:26;;;;;;;;;;;;;;;;;;5037419;28;19931;-25
2023/07/24 01:21:52;;;;;;;;;;;;;;;;;;5037334;28;19913;-22
2023/07/24 01:24:18;;;;;;;;;;;;;;;;;;5037298;28;19917;-24
2023/07/24 01:26:44;;;;;;;;;;;;;;;;;;5037450;28;19975;-22
2023/07/24 01:29:10;;;;;;;;;;;;;;;;;;5037285;28;20264;-27
2023/07/24 01:31:36;;;;;;;;;;;;;;;;;;5019648;28;19978;-21
2023/07/24 01:34:02;;;;;;;;;;;;;;;;;;5037279;28;19909;-26
2023/07/24 01:36:28;;;;;;;;;;;;;;;;;;5037757;28;19913;-25
2023/07/24 01:38:54;;;;;;;;;;;;;;;;;;5036976;28;19978;-24
2023/07/24 01:41:20;;;;;;;;;;;;;;;;;;5036996;28;19909;-22
2023/07/24 01:43:46;;;;;;;;;;;;;;;;;;5036858;28;19917;-27
2023/07/24 01:46:12;;;;;;;;;;;;;;;;;;5036829;28;19921;-26
2023/07/24 01:48:38;;;;;;;;;;;;;;;;;;5037040;28;19909;-20
2023/07/24 01:51:04;;;;;;;;;;;;;;;;;;5037013;28;20340;-22
2023/07/24 01:53:30;;;;;;;;;;;;;;;;;;5036972;28;20340;-24
2023/07/24 01:55:56;;;;;;;;;;;;;;;;;;5036986;28;20396;-28
2023/07/24 01:58:22;;;;;;;;;;;;;;;;;;5036701;28;20269;-28
2023/07/24 02:00:48;;;;;;;;;;;;;;;;;;5036669;28;19920;-26
2023/07/24 02:03:14;;;;;;;;;;;;;;;;;;5036330;28;19913;-22
2023/07/24 02:05:40;;;;;;;;;;;;;;;;;;5036528;28;20005;-25
2023/07/24 02:08:06;;;;;;;;;;;;;;;;;;5036556;28;19952;-21
2023/07/24 02:10:32;;;;;;;;;;;;;;;;;;5036484;28;20363;-22
2023/07/24 02:12:58;;;;;;;;;;;;;;;;;;5036375;28;19909;-25
2023/07/24 02:15:24;;;;;;;;;;;;;;;;;;5036354;28;19986;-22
2023/07/24 02:17:50;;;;;;;;;;;;;;;;;;5036523;28;19920;-23
2023/07/24 02:20:16;;;;;;;;;;;;;;;;;;5036228;28;19920;-24
2023/07/24 02:22:41;;;;;;;;;;;;;;;;;;5036176;28;19986;-25
2023/07/24 02:25:07;;;;;;;;;;;;;;;;;;5036229;28;19917;-24
2023/07/24 02:27:34;;;;;;;;;;;;;;;;;;5036287;28;19928;-28
2023/07/24 02:30:00;;;;;;;;;;;;;;;;;;5036342;28;19971;-26
2023/07/24 02:32:26;;;;;;;;;;;;;;;;;;5036117;28;20009;-23
2023/07/24 02:34:52;;;;;;;;;;;;;;;;;;5036204;28;19921;-23
2023/07/24 02:37:18;;;;;;;;;;;;;;;;;;5036226;28;19953;-26
2023/07/24 02:39:44;;;;;;;;;;;;;;;;;;5036113;28;19920;-23
2023/07/24 02:42:10;;;;;;;;;;;;;;;;;;5035684;28;19944;-27
2023/07/24 02:44:35;;;;;;;;;;;;;;;;;;5018357;28;19952;-25
2023/07/24 02:47:01;;;;;;;;;;;;;;;;;;5035757;28;19921;-26
2023/07/24 02:49:27;;;;;;;;;;;;;;;;;;5035451;28;19967;-25
2023/07/24 02:51:53;;;;;;;;;;;;;;;;;;5017606;28;19986;-25
2023/07/24 02:54:19;;;;;;;;;;;;;;;;;;5035415;28;19961;-21
2023/07/24 02:56:45;;;;;;;;;;;;;;;;;;5035467;28;19909;-26
2023/07/24 02:59:11;;;;;;;;;;;;;;;;;;5035672;28;19909;-25
2023/07/24 03:01:37;;;;;;;;;;;;;;;;;;5035703;28;19920;-25
2023/07/24 03:04:05;;;;;;;;;;;;;;;;;;5035049;28;19932;-26
2023/07/24 03:06:31;;;;;;;;;;;;;;;;;;5035469;28;19913;-28
2023/07/24 03:08:57;;;;;;;;;;;;;;;;;;5017809;28;19909;-24
2023/07/24 03:11:23;;;;;;;;;;;;;;;;;;5035195;28;20312;-29
2023/07/24 03:13:49;;;;;;;;;;;;;;;;;;5035089;28;20345;-27
2023/07/24 03:16:17;;;;;;;;;;;;;;;;;;5035094;28;20295;-28
2023/07/24 03:18:43;;;;;;;;;;;;;;;;;;5034984;28;19932;-22
2023/07/24 03:21:08;;;;;;;;;;;;;;;;;;5034990;28;19909;-24
2023/07/24 03:23:34;;;;;;;;;;;;;;;;;;5034908;28;20271;-20
2023/07/24 03:26:00;;;;;;;;;;;;;;;;;;5034898;28;20016;-21
2023/07/24 03:28:26;;;;;;;;;;;;;;;;;;5035040;28;19909;-25
2023/07/24 03:30:52;;;;;;;;;;;;;;;;;;5034752;28;19951;-25
2023/07/24 03:33:18;;;;;;;;;;;;;;;;;;5034863;28;19956;-22
2023/07/24 03:35:44;;;;;;;;;;;;;;;;;;5017286;28;19966;-26
2023/07/24 03:38:10;;;;;;;;;;;;;;;;;;5034954;28;19916;-23
2023/07/24 03:40:36;;;;;;;;;;;;;;;;;;5034914;28;19909;-22
2023/07/24 03:43:02;;;;;;;;;;;;;;;;;;5034533;28;20281;-24
2023/07/24 03:45:28;;;;;;;;;;;;;;;;;;5034667;28;19909;-23
2023/07/24 03:47:54;;;;;;;;;;;;;;;;;;5034599;28;19928;-21
2023/07/24 03:50:20;;;;;;;;;;;;;;;;;;5017178;28;20352;-25
2023/07/24 03:52:46;;;;;;;;;;;;;;;;;;5034512;28;19909;-25
2023/07/24 03:55:12;;;;;;;;;;;;;;;;;;5034562;28;20003;-21
2023/07/24 03:57:38;;;;;;;;;;;;;;;;;;5034668;28;19976;-23
2023/07/24 04:00:04;;;;;;;;;;;;;;;;;;5034471;28;19913;-27
2023/07/24 04:02:30;;;;;;;;;;;;;;;;;;5506928;22;19932;-14
2023/07/24 04:04:56;;;;;;;;;;;;;;;;;;5033553;28;19909;-16
2023/07/24 04:07:22;;;;;;;;;;;;;;;;;;5034471;28;20347;-15
2023/07/24 04:09:48;;;;;;;;;;;;;;;;;;5034519;28;20271;-15
2023/07/24 04:12:14;;;;;;;;;;;;;;;;;;5034536;28;19909;-15
2023/07/24 04:14:40;;;;;;;;;;;;;;;;;;5034772;28;19913;-15
2023/07/24 04:17:06;;;;;;;;;;;;;;;;;;5034766;28;19909;-17
2023/07/24 04:19:32;;;;;;;;;;;;;;;;;;5034370;28;20314;-16
2023/07/24 04:21:58;;;;;;;;;;;;;;;;;;5034505;28;19913;-16
2023/07/24 04:24:23;;;;;;;;;;;;;;;;;;5034170;28;19910;-14
2023/07/24 04:26:49;;;;;;;;;;;;;;;;;;5034306;28;19920;-17
2023/07/24 04:29:15;;;;;;;;;;;;;;;;;;5034917;28;19920;-14
2023/07/24 04:31:41;;;;;;;;;;;;;;;;;;5034652;28;19909;-15
2023/07/24 04:34:07;;;;;;;;;;;;;;;;;;5034265;28;19913;-15
2023/07/24 04:36:33;;;;;;;;;;;;;;;;;;5034526;28;19909;-14
2023/07/24 04:38:59;;;;;;;;;;;;;;;;;;5034204;28;19909;-23
2023/07/24 04:41:25;;;;;;;;;;;;;;;;;;5034223;28;20359;-14
2023/07/24 04:43:51;;;;;;;;;;;;;;;;;;5034058;28;19967;-18
2023/07/24 04:46:17;;;;;;;;;;;;;;;;;;5034283;28;19921;-14
2023/07/24 04:48:43;;;;;;;;;;;;;;;;;;5034008;28;19909;-15
2023/07/24 04:51:09;;;;;;;;;;;;;;;;;;5034103;28;19972;-14
2023/07/24 04:53:35;;;;;;;;;;;;;;;;;;5034258;28;19910;-15
2023/07/24 04:56:01;;;;;;;;;;;;;;;;;;5034274;28;19916;-15
2023/07/24 04:58:27;;;;;;;;;;;;;;;;;;5034132;28;19909;-15
2023/07/24 05:00:53;;;;;;;;;;;;;;;;;;5034257;28;19909;-18
2023/07/24 05:03:19;;;;;;;;;;;;;;;;;;5033920;28;19925;-17
2023/07/24 05:05:45;;;;;;;;;;;;;;;;;;5034072;28;20319;-16
2023/07/24 05:08:11;;;;;;;;;;;;;;;;;;5016516;28;19948;-14
2023/07/24 05:10:37;;;;;;;;;;;;;;;;;;5016438;28;20040;-13
2023/07/24 05:13:03;;;;;;;;;;;;;;;;;;5034039;28;19963;-14
2023/07/24 05:15:29;;;;;;;;;;;;;;;;;;5037534;28;20340;-21
2023/07/24 05:17:55;;;;;;;;;;;;;;;;;;5037737;28;19909;-16
2023/07/24 05:20:21;;;;;;;;;;;;;;;;;;5037490;28;19920;-15
2023/07/24 05:22:47;;;;;;;;;;;;;;;;;;5037684;28;19919;-18
2023/07/24 05:25:13;;;;;;;;;;;;;;;;;;5037385;28;19913;-16
2023/07/24 05:27:39;;;;;;;;;;;;;;;;;;5037443;28;19914;-15
2023/07/24 05:30:05;;;;;;;;;;;;;;;;;;5037448;28;19920;-14
2023/07/24 05:32:31;;;;;;;;;;;;;;;;;;5037666;28;19936;-15
2023/07/24 05:34:56;;;;;;;;;;;;;;;;;;5037206;28;20336;-16
2023/07/24 05:37:22;;;;;;;;;;;;;;;;;;5036995;28;19957;-15
2023/07/24 05:39:48;;;;;;;;;;;;;;;;;;5020208;28;19920;-15
2023/07/24 05:42:14;;;;;;;;;;;;;;;;;;5019605;28;19915;-15
2023/07/24 05:44:40;;;;;;;;;;;;;;;;;;5037365;28;19916;-14
2023/07/24 05:47:06;;;;;;;;;;;;;;;;;;5037257;28;19990;-14
2023/07/24 05:49:32;;;;;;;;;;;;;;;;;;5036809;28;20340;-17
2023/07/24 05:51:58;;;;;;;;;;;;;;;;;;5019051;28;19909;-15
2023/07/24 05:54:24;;;;;;;;;;;;;;;;;;5036560;28;20254;-15
2023/07/24 05:56:50;;;;;;;;;;;;;;;;;;5036523;28;19909;-15
2023/07/24 05:59:16;;;;;;;;;;;;;;;;;;5018905;28;19949;-15
2023/07/24 06:01:42;;;;;;;;;;;;;;;;;;5036741;28;20016;-14
2023/07/24 06:04:08;;;;;;;;;;;;;;;;;;5036446;28;19933;-16
2023/07/24 06:06:34;;;;;;;;;;;;;;;;;;5019218;28;20348;-16
2023/07/24 06:09:00;;;;;;;;;;;;;;;;;;5036574;28;19909;-17
2023/07/24 06:11:26;;;;;;;;;;;;;;;;;;5036961;28;19968;-15
2023/07/24 06:13:52;;;;;;;;;;;;;;;;;;5036361;28;20224;-15
2023/07/24 06:16:18;;;;;;;;;;;;;;;;;;5018522;28;19909;-15
2023/07/24 06:18:44;;;;;;;;;;;;;;;;;;5018622;28;19919;-15
2023/07/24 06:21:10;;;;;;;;;;;;;;;;;;5018469;28;19909;-14
2023/07/24 06:23:36;;;;;;;;;;;;;;;;;;5018477;28;19916;-15
2023/07/24 06:26:02;;;;;;;;;;;;;;;;;;5034842;28;19909;-16
2023/07/24 06:28:28;;;;;;;;;;;;;;;;;;5018341;28;19910;-15
2023/07/24 06:30:54;;;;;;;;;;;;;;;;;;5036040;28;19944;-18
2023/07/24 06:33:21;;;;;;;;;;;;;;;;;;5035868;28;19909;-14
2023/07/24 06:35:47;;;;;;;;;;;;;;;;;;5035807;28;19972;-14
2023/07/24 06:38:13;;;;;;;;;;;;;;;;;;5018630;28;19917;-14
2023/07/24 06:40:39;;;;;;;;;;;;;;;;;;5036194;28;19909;-15
2023/07/24 06:43:05;;;;;;;;;;;;;;;;;;5035846;28;19962;-14
2023/07/24 06:45:31;;;;;;;;;;;;;;;;;;5036497;28;19916;-16
2023/07/24 06:47:57;;;;;;;;;;;;;;;;;;5035678;28;20289;-17
2023/07/24 06:50:22;;;;;;;;;;;;;;;;;;5035946;28;19995;-16
2023/07/24 06:52:50;;;;;;;;;;;;;;;;;;5035783;28;20252;-14
2023/07/24 06:55:16;;;;;;;;;;;;;;;;;;5035576;28;19920;-14
2023/07/24 06:57:42;;;;;;;;;;;;;;;;;;5035679;28;19909;-15
2023/07/24 07:00:11;;;;;;;;;;;;;;;;;;5018055;28;19971;-15
2023/07/24 07:02:37;;;;;;;;;;;;;;;;;;5017570;28;19917;-14
2023/07/24 07:05:03;;;;;;;;;;;;;;;;;;5035590;28;19916;-14
2023/07/24 07:07:29;;;;;;;;;;;;;;;;;;5035153;28;19913;-14
2023/07/24 07:09:55;;;;;;;;;;;;;;;;;;5035641;28;20362;-13
2023/07/24 07:12:21;;;;;;;;;;;;;;;;;;5034973;28;19909;-14
2023/07/24 07:14:47;;;;;;;;;;;;;;;;;;5035231;28;20334;-16
2023/07/24 07:17:13;;;;;;;;;;;;;;;;;;5035129;28;20264;-16
2023/07/24 07:19:39;;;;;;;;;;;;;;;;;;5035631;28;20225;-14
2023/07/24 07:22:05;;;;;;;;;;;;;;;;;;5017699;28;19909;-13
2023/07/24 07:24:31;;;;;;;;;;;;;;;;;;5035024;28;19909;-14
2023/07/24 07:26:57;;;;;;;;;;;;;;;;;;5035212;28;19919;-14
2023/07/24 07:29:23;;;;;;;;;;;;;;;;;;5017784;28;19909;-15
2023/07/24 07:31:49;;;;;;;;;;;;;;;;;;5035079;28;19920;-16
2023/07/24 07:34:15;;;;;;;;;;;;;;;;;;5017390;28;20232;-14
2023/07/24 07:36:41;;;;;;;;;;;;;;;;;;5034452;28;19909;-17
2023/07/24 07:39:07;;;;;;;;;;;;;;;;;;5034773;28;19971;-15
2023/07/24 07:41:33;;;;;;;;;;;;;;;;;;5034891;28;20303;-14
2023/07/24 07:43:59;;;;;;;;;;;;;;;;;;5034792;28;20011;-15
2023/07/24 07:46:25;;;;;;;;;;;;;;;;;;5034566;28;20012;-15
2023/07/24 07:48:51;;;;;;;;;;;;;;;;;;5034531;28;20050;-15
2023/07/24 07:51:17;;;;;;;;;;;;;;;;;;5034701;28;19936;-15
2023/07/24 07:53:43;;;;;;;;;;;;;;;;;;5034380;28;19958;-14
2023/07/24 07:56:09;;;;;;;;;;;;;;;;;;5016869;28;19909;-16
2023/07/24 07:58:35;;;;;;;;;;;;;;;;;;5034387;28;20316;-15
2023/07/24 08:01:01;;;;;;;;;;;;;;;;;;5016958;28;19920;-15
2023/07/24 08:03:27;;;;;;;;;;;;;;;;;;5034008;28;19925;-15
2023/07/24 08:05:53;;;;;;;;;;;;;;;;;;5016882;28;19909;-15
2023/07/24 08:08:19;;;;;;;;;;;;;;;;;;5034377;28;19910;-16
2023/07/24 08:10:45;;;;;;;;;;;;;;;;;;5016822;28;20024;-16
2023/07/24 08:13:11;;;;;;;;;;;;;;;;;;5034312;28;19915;-15
2023/07/24 08:15:37;;;;;;;;;;;;;;;;;;5016864;28;20336;-15
2023/07/24 08:18:03;;;;;;;;;;;;;;;;;;5034401;28;19989;-15
2023/07/24 08:20:29;;;;;;;;;;;;;;;;;;5035001;28;19919;-15
2023/07/24 08:22:55;;;;;;;;;;;;;;;;;;5034378;28;19980;-16
2023/07/24 08:25:21;;;;;;;;;;;;;;;;;;5034511;28;19909;-15
2023/07/24 08:27:47;;;;;;;;;;;;;;;;;;5034142;28;19917;-16
2023/07/24 08:30:13;;;;;;;;;;;;;;;;;;5034874;28;19924;-15
2023/07/24 08:32:39;;;;;;;;;;;;;;;;;;5034058;28;20363;-14
2023/07/24 08:35:05;;;;;;;;;;;;;;;;;;5034006;28;19916;-15
2023/07/24 08:37:30;;;;;;;;;;;;;;;;;;5034085;28;20007;-16
2023/07/24 08:39:56;;;;;;;;;;;;;;;;;;5033980;28;19909;-15
2023/07/24 08:42:23;;;;;;;;;;;;;;;;;;5033946;28;19915;-14
2023/07/24 08:44:48;;;;;;;;;;;;;;;;;;5033726;28;20362;-14
2023/07/24 08:47:14;;;;;;;;;;;;;;;;;;5033811;28;19913;-15
2023/07/24 08:49:40;;;;;;;;;;;;;;;;;;5036678;28;19910;-28
2023/07/24 08:52:06;;;;;;;;;;;;;;;;;;5037568;28;19915;-15
2023/07/24 08:54:32;;;;;;;;;;;;;;;;;;5019785;28;19913;-15
2023/07/24 08:56:58;;;;;;;;;;;;;;;;;;5037218;28;20305;-15
2023/07/24 08:59:25;;;;;;;;;;;;;;;;;;5037722;28;19909;-15
2023/07/24 09:01:52;;;;;;;;;;;;;;;;;;5019689;28;19909;-15
2023/07/24 09:04:17;;;;;;;;;;;;;;;;;;5036964;28;19925;-15
2023/07/24 09:06:43;;;;;;;;;;;;;;;;;;5037350;28;20045;-16
2023/07/24 09:09:09;;;;;;;;;;;;;;;;;;5037109;28;20205;-16
2023/07/24 09:11:35;;;;;;;;;;;;;;;;;;5037075;28;20383;-24
2023/07/24 09:14:01;;;;;;;;;;;;;;;;;;5019372;28;20067;-17
2023/07/24 09:16:27;;;;;;;;;;;;;;;;;;5037291;28;20333;-14
2023/07/24 09:18:53;;;;;;;;;;;;;;;;;;5036913;28;19909;-14
2023/07/24 09:21:19;;;;;;;;;;;;;;;;;;5037113;28;19917;-15
2023/07/24 09:23:45;;;;;;;;;;;;;;;;;;5036959;28;19959;-15
2023/07/24 09:26:11;;;;;;;;;;;;;;;;;;5037748;28;20000;-21
2023/07/24 09:28:37;;;;;;;;;;;;;;;;;;5037648;28;20244;-17
2023/07/24 09:31:04;;;;;;;;;;;;;;;;;;5037205;28;20254;-14
2023/07/24 09:33:30;;;;;;;;;;;;;;;;;;5037243;28;20247;-15
2023/07/24 09:35:56;;;;;;;;;;;;;;;;;;5036992;28;19909;-16
2023/07/24 09:38:22;;;;;;;;;;;;;;;;;;5036873;28;19917;-14
2023/07/24 09:40:50;;;;;;;;;;;;;;;;;;5036872;28;20000;-15
2023/07/24 09:43:16;;;;;;;;;;;;;;;;;;5036959;28;19910;-13
2023/07/24 09:45:42;;;;;;;;;;;;;;;;;;5036942;28;20019;-16
2023/07/24 09:48:11;;;;;;;;;;;;;;;;;;5036945;28;19924;-15
2023/07/24 09:50:36;;;;;;;;;;;;;;;;;;5036948;28;20328;-15
2023/07/24 09:53:04;;;;;;;;;;;;;;;;;;5036942;28;19996;-13
2023/07/24 09:55:30;;;;;;;;;;;;;;;;;;5037054;28;19971;-14
2023/07/24 09:57:56;;;;;;;;;;;;;;;;;;5036568;28;20019;-14
2023/07/24 10:00:22;;;;;;;;;;;;;;;;;;5036563;28;19921;-16
2023/07/24 10:02:48;;;;;;;;;;;;;;;;;;5036147;28;19984;-15
2023/07/24 10:05:14;;;;;;;;;;;;;;;;;;5018927;28;19924;-16
2023/07/24 10:07:40;;;;;;;;;;;;;;;;;;5036366;28;19917;-15
2023/07/24 10:10:05;;;;;;;;;;;;;;;;;;5036808;28;19966;-15
2023/07/24 10:12:32;;;;;;;;;;;;;;;;;;5036267;28;19992;-14
2023/07/24 10:14:58;;;;;;;;;;;;;;;;;;5036524;28;20063;-15
2023/07/24 10:17:24;;;;;;;;;;;;;;;;;;5036267;28;19954;-16
2023/07/24 10:19:50;;;;;;;;;;;;;;;;;;5036148;28;19932;-14
2023/07/24 10:22:16;;;;;;;;;;;;;;;;;;5036094;28;20351;-16
2023/07/24 10:24:42;;;;;;;;;;;;;;;;;;5035917;28;20401;-14
2023/07/24 10:27:08;;;;;;;;;;;;;;;;;;5036044;28;20248;-16
2023/07/24 10:29:34;;;;;;;;;;;;;;;;;;5035796;28;19909;-16
2023/07/24 10:32:00;;;;;;;;;;;;;;;;;;5035692;28;19909;-15
2023/07/24 10:34:26;;;;;;;;;;;;;;;;;;5036046;28;19921;-15
2023/07/24 10:36:51;;;;;;;;;;;;;;;;;;5035763;28;19967;-15
2023/07/24 10:39:21;;;;;;;;;;;;;;;;;;5035878;28;19913;-15
2023/07/24 10:41:47;;;;;;;;;;;;;;;;;;5035895;28;20252;-14
2023/07/24 10:44:13;;;;;;;;;;;;;;;;;;5035988;28;20335;-16
2023/07/24 10:46:39;;;;;;;;;;;;;;;;;;5018012;28;20059;-16
2023/07/24 10:49:05;;;;;;;;;;;;;;;;;;5035438;28;19932;-16
2023/07/24 10:51:33;;;;;;;;;;;;;;;;;;5035617;28;19909;-14
2023/07/24 10:53:59;;;;;;;;;;;;;;;;;;5035370;28;19909;-14
2023/07/24 10:56:25;;;;;;;;;;;;;;;;;;5035489;28;19932;-15
2023/07/24 10:58:51;;;;;;;;;;;;;;;;;;5035273;28;19909;-16
2023/07/24 11:01:17;;;;;;;;;;;;;;;;;;5035599;28;19917;-14
2023/07/24 11:03:43;;;;;;;;;;;;;;;;;;5034966;28;19921;-14
2023/07/24 11:06:09;;;;;;;;;;;;;;;;;;5035214;28;19909;-16
2023/07/24 11:08:37;;;;;;;;;;;;;;;;;;5035051;28;19913;-14
2023/07/24 11:11:04;;;;;;;;;;;;;;;;;;5034412;28;20348;-17
2023/07/24 11:13:30;;;;;;;;;;;;;;;;;;5035253;28;19920;-18
2023/07/24 11:15:56;;;;;;;;;;;;;;;;;;5017378;28;19909;-14
2023/07/24 11:18:24;;;;;;;;;;;;;;;;;;5035045;28;19916;-14
2023/07/24 11:20:50;;;;;;;;;;;;;;;;;;5035164;28;20286;-15
2023/07/24 11:23:16;;;;;;;;;;;;;;;;;;5035164;28;19991;-15
2023/07/24 11:25:42;;;;;;;;;;;;;;;;;;5035227;28;19916;-15
2023/07/24 11:28:08;;;;;;;;;;;;;;;;;;5034971;28;20220;-15
2023/07/24 11:30:34;;;;;;;;;;;;;;;;;;5017517;28;19909;-16
2023/07/24 11:33:01;;;;;;;;;;;;;;;;;;5034804;28;19909;-14
2023/07/24 11:35:26;;;;;;;;;;;;;;;;;;5034817;28;19920;-15
2023/07/24 11:37:52;;;;;;;;;;;;;;;;;;5035249;28;19909;-15
2023/07/24 11:40:20;;;;;;;;;;;;;;;;;;5017283;28;19971;-14
2023/07/24 11:42:46;;;;;;;;;;;;;;;;;;5035225;28;20007;-14
2023/07/24 11:45:12;;;;;;;;;;;;;;;;;;5034829;28;19960;-14
2023/07/24 11:47:38;;;;;;;;;;;;;;;;;;5034892;28;19917;-15
2023/07/24 11:50:04;;;;;;;;;;;;;;;;;;5034546;28;19909;-14
2023/07/24 11:52:30;;;;;;;;;;;;;;;;;;5034684;28;19909;-14
2023/07/24 11:55:00;;;;;;;;;;;;;;;;;;5034485;28;19909;-14
2023/07/24 11:57:26;;;;;;;;;;;;;;;;;;5034786;28;19909;-14
2023/07/24 11:59:53;;;;;;;;;;;;;;;;;;5034743;28;19928;-15
2023/07/24 12:02:19;;;;;;;;;;;;;;;;;;5016728;28;19909;-15
2023/07/24 12:04:45;;;;;;;;;;;;;;;;;;5035034;28;20296;-15
2023/07/24 12:07:11;;;;;;;;;;;;;;;;;;5016770;28;19924;-19
2023/07/24 12:09:37;;;;;;;;;;;;;;;;;;5034339;28;19916;-23
2023/07/24 12:12:03;;;;;;;;;;;;;;;;;;5034287;28;19909;-13
2023/07/24 12:14:29;;;;;;;;;;;;;;;;;;5016744;28;19995;-15
2023/07/24 12:16:55;;;;;;;;;;;;;;;;;;5034304;28;19909;-16
2023/07/24 12:19:21;;;;;;;;;;;;;;;;;;5034756;28;19909;-16
2023/07/24 12:21:47;;;;;;;;;;;;;;;;;;5034735;28;20208;-16
2023/07/24 12:24:13;;;;;;;;;;;;;;;;;;5036443;28;19917;-15
2023/07/24 12:26:39;;;;;;;;;;;;;;;;;;5038229;28;20320;-15
2023/07/24 12:29:05;;;;;;;;;;;;;;;;;;5038283;28;19932;-14
2023/07/24 12:31:31;;;;;;;;;;;;;;;;;;5038583;28;20020;-14
2023/07/24 12:33:57;;;;;;;;;;;;;;;;;;5038212;28;19913;-15
2023/07/24 12:36:22;;;;;;;;;;;;;;;;;;5038840;28;20316;-15
2023/07/24 12:38:49;;;;;;;;;;;;;;;;;;5020615;28;20248;-17
2023/07/24 12:41:15;;;;;;;;;;;;;;;;;;5038136;28;20359;-15
2023/07/24 12:43:41;;;;;;;;;;;;;;;;;;5037874;28;19920;-15
2023/07/24 12:46:07;;;;;;;;;;;;;;;;;;5037646;28;20267;-15
2023/07/24 12:48:33;;;;;;;;;;;;;;;;;;5020307;28;20268;-15
2023/07/24 12:51:00;;;;;;;;;;;;;;;;;;5037789;28;19916;-15
2023/07/24 12:53:26;;;;;;;;;;;;;;;;;;5037532;28;19909;-14
2023/07/24 12:55:52;;;;;;;;;;;;;;;;;;5037814;28;20244;-15
2023/07/24 12:58:18;;;;;;;;;;;;;;;;;;5037362;28;19913;-15
2023/07/24 13:00:44;;;;;;;;;;;;;;;;;;5037372;28;20256;-16
2023/07/24 13:03:10;;;;;;;;;;;;;;;;;;5037316;28;20389;-15
2023/07/24 13:05:36;;;;;;;;;;;;;;;;;;5037530;28;20332;-14
2023/07/24 13:08:02;;;;;;;;;;;;;;;;;;5037836;28;19921;-13
2023/07/24 13:10:28;;;;;;;;;;;;;;;;;;5037701;28;19999;-16
2023/07/24 13:12:54;;;;;;;;;;;;;;;;;;5037505;28;20332;-15
2023/07/24 13:15:20;;;;;;;;;;;;;;;;;;5037541;28;19919;-15
2023/07/24 13:17:46;;;;;;;;;;;;;;;;;;5037442;28;20000;-16
2023/07/24 13:20:12;;;;;;;;;;;;;;;;;;5037384;28;20067;-16
2023/07/24 13:22:38;;;;;;;;;;;;;;;;;;5037252;28;19991;-14
2023/07/24 13:25:04;;;;;;;;;;;;;;;;;;5037386;28;19909;-14
2023/07/24 13:27:30;;;;;;;;;;;;;;;;;;5037172;28;19913;-14
2023/07/24 13:29:56;;;;;;;;;;;;;;;;;;5037519;28;20312;-15
2023/07/24 13:32:21;;;;;;;;;;;;;;;;;;5037249;28;20292;-15
2023/07/24 13:34:47;;;;;;;;;;;;;;;;;;5037309;28;19928;-18
2023/07/24 13:37:13;;;;;;;;;;;;;;;;;;5019564;28;19917;-15
2023/07/24 13:39:39;;;;;;;;;;;;;;;;;;5037215;28;20292;-15
2023/07/24 13:42:05;;;;;;;;;;;;;;;;;;5036823;28;19913;-14
2023/07/24 13:44:31;;;;;;;;;;;;;;;;;;5019224;28;19935;-16
2023/07/24 13:46:57;;;;;;;;;;;;;;;;;;5036964;28;20020;-15
2023/07/24 13:49:23;;;;;;;;;;;;;;;;;;5036869;28;19909;-15
2023/07/24 13:51:49;;;;;;;;;;;;;;;;;;5036996;28;19951;-17
2023/07/24 13:54:15;;;;;;;;;;;;;;;;;;5037137;28;19909;-15
2023/07/24 13:56:41;;;;;;;;;;;;;;;;;;5037314;28;19916;-15
2023/07/24 13:59:07;;;;;;;;;;;;;;;;;;5036686;28;20000;-15
2023/07/24 14:01:33;;;;;;;;;;;;;;;;;;5036637;28;19999;-13
2023/07/24 14:04:00;;;;;;;;;;;;;;;;;;5036417;28;20245;-16
2023/07/24 14:06:26;;;;;;;;;;;;;;;;;;5036386;28;19913;-15
2023/07/24 14:08:52;;;;;;;;;;;;;;;;;;5018904;28;19928;-18
2023/07/24 14:11:18;;;;;;;;;;;;;;;;;;5018800;28;19970;-16
2023/07/24 14:13:46;;;;;;;;;;;;;;;;;;5019004;28;20002;-15
2023/07/24 14:16:14;;;;;;;;;;;;;;;;;;5035509;28;20459;-14
2023/07/24 14:18:39;;;;;;;;;;;;;;;;;;5036902;28;20328;-14
2023/07/24 14:21:05;;;;;;;;;;;;;;;;;;5036632;28;19905;-17
2023/07/24 14:23:31;;;;;;;;;;;;;;;;;;5036173;28;19917;-18
2023/07/24 14:25:57;;;;;;;;;;;;;;;;;;5036166;28;19910;-16
2023/07/24 14:28:23;;;;;;;;;;;;;;;;;;5036051;28;19917;-16
2023/07/24 14:30:49;;;;;;;;;;;;;;;;;;5036119;28;19959;-14
2023/07/24 14:33:15;;;;;;;;;;;;;;;;;;5018288;28;19944;-15
2023/07/24 14:35:41;;;;;;;;;;;;;;;;;;5035846;28;19909;-17
2023/07/24 14:38:07;;;;;;;;;;;;;;;;;;5036111;28;20398;-16
2023/07/24 14:40:33;;;;;;;;;;;;;;;;;;5036244;28;19910;-16
2023/07/24 14:42:59;;;;;;;;;;;;;;;;;;5035899;28;19970;-15
2023/07/24 14:45:25;;;;;;;;;;;;;;;;;;5017823;28;20344;-15
2023/07/24 14:47:51;;;;;;;;;;;;;;;;;;5034937;28;19913;-13
2023/07/24 14:50:17;;;;;;;;;;;;;;;;;;5035453;28;19982;-15
2023/07/24 14:52:43;;;;;;;;;;;;;;;;;;5035706;28;19946;-15
2023/07/24 14:55:09;;;;;;;;;;;;;;;;;;5035419;28;19909;-15
2023/07/24 14:57:35;;;;;;;;;;;;;;;;;;5035465;28;19961;-16
2023/07/24 15:00:01;;;;;;;;;;;;;;;;;;5035702;28;19915;-16
2023/07/24 15:02:27;;;;;;;;;;;;;;;;;;5018100;28;20233;-14
2023/07/24 15:04:53;;;;;;;;;;;;;;;;;;5035678;28;20018;-14
2023/07/24 15:07:19;;;;;;;;;;;;;;;;;;5035246;28;20008;-14
2023/07/24 15:09:45;;;;;;;;;;;;;;;;;;5035150;28;19909;-16
2023/07/24 15:12:11;;;;;;;;;;;;;;;;;;5017483;28;20221;-18
2023/07/24 15:14:37;;;;;;;;;;;;;;;;;;5035223;28;20252;-18
2023/07/24 15:17:03;;;;;;;;;;;;;;;;;;5034885;28;20388;-15
2023/07/24 15:19:29;;;;;;;;;;;;;;;;;;5034870;28;19917;-14
2023/07/24 15:21:55;;;;;;;;;;;;;;;;;;5035008;28;19917;-14
2023/07/24 15:24:21;;;;;;;;;;;;;;;;;;5017343;28;20322;-16
2023/07/24 15:26:47;;;;;;;;;;;;;;;;;;5034567;28;19924;-19
2023/07/24 15:29:14;;;;;;;;;;;;;;;;;;5034533;28;19931;-15
2023/07/24 15:31:40;;;;;;;;;;;;;;;;;;5034497;28;19978;-15
2023/07/24 15:34:06;;;;;;;;;;;;;;;;;;5034434;28;19933;-16
2023/07/24 15:36:32;;;;;;;;;;;;;;;;;;5034802;28;19983;-17
2023/07/24 15:38:58;;;;;;;;;;;;;;;;;;5034721;28;19913;-15
2023/07/24 15:41:24;;;;;;;;;;;;;;;;;;5017148;28;19909;-15
2023/07/24 15:43:50;;;;;;;;;;;;;;;;;;5017729;28;19917;-14
2023/07/24 15:46:16;;;;;;;;;;;;;;;;;;5034866;28;19916;-15
2023/07/24 15:48:42;;;;;;;;;;;;;;;;;;5017986;28;19913;-14
2023/07/24 15:51:08;;;;;;;;;;;;;;;;;;5035474;28;20340;-15
2023/07/24 15:53:34;;;;;;;;;;;;;;;;;;5017317;28;20352;-14
2023/07/24 15:56:00;;;;;;;;;;;;;;;;;;5034759;28;19910;-16
2023/07/24 15:58:26;;;;;;;;;;;;;;;;;;5034489;28;19909;-15
2023/07/24 16:00:52;;;;;;;;;;;;;;;;;;5034689;28;19909;-14
2023/07/24 16:03:18;;;;;;;;;;;;;;;;;;5034371;28;19929;-18
2023/07/24 16:05:44;;;;;;;;;;;;;;;;;;5016878;28;19910;-15
2023/07/24 16:08:10;;;;;;;;;;;;;;;;;;5035050;28;19913;-14
2023/07/24 16:10:36;;;;;;;;;;;;;;;;;;5035021;28;19910;-15
2023/07/24 16:13:01;;;;;;;;;;;;;;;;;;5017136;28;19909;-15
2023/07/24 16:15:28;;;;;;;;;;;;;;;;;;5034508;28;19924;-16
2023/07/24 16:17:54;;;;;;;;;;;;;;;;;;5034322;28;20019;-16
2023/07/24 16:20:21;;;;;;;;;;;;;;;;;;5034699;28;19949;-15
2023/07/24 16:22:47;;;;;;;;;;;;;;;;;;5034374;28;19999;-17
2023/07/24 16:25:13;;;;;;;;;;;;;;;;;;5034365;28;20014;-14
2023/07/24 16:27:39;;;;;;;;;;;;;;;;;;5034212;28;19920;-14
2023/07/24 16:30:05;;;;;;;;;;;;;;;;;;5034153;28;19909;-14
2023/07/24 16:32:30;;;;;;;;;;;;;;;;;;5034359;28;19995;-14
2023/07/24 16:34:56;;;;;;;;;;;;;;;;;;5034121;28;19909;-15
2023/07/24 16:37:24;;;;;;;;;;;;;;;;;;5034179;28;19909;-15